Time;durP1;ratioP1;P1;durP2;ratioP2;P2;SDS_P1;SDS_P2;PMS_P1;PMS_P2;Temp;Humidity;BMP_temperature;BMP_pressure;BME280_temperature;BME280_humidity;BME280_pressure;Samples;Min_cycle;Max_cycle;Signal;HPM_P1;HPM_P2
2024/03/19 00:00:53;;;;;;;27.08;11.20;;;;;;;;;;5060005;28;20036;-64
2024/03/19 00:03:19;;;;;;;28.80;10.90;;;;;;;;;;5060024;28;20413;-64
2024/03/19 00:05:45;;;;;;;25.23;10.82;;;;;;;;;;5069324;28;20051;-63
2024/03/19 00:08:11;;;;;;;26.02;9.95;;;;;;;;;;5058391;28;20052;-64
2024/03/19 00:10:37;;;;;;;23.83;9.40;;;;;;;;;;5063585;28;20524;-64
2024/03/19 00:13:03;;;;;;;23.88;9.88;;;;;;;;;;5073093;28;20068;-64
2024/03/19 00:15:30;;;;;;;23.10;9.80;;;;;;;;;;5074505;28;20047;-65
2024/03/19 00:17:56;;;;;;;22.08;9.55;;;;;;;;;;5077423;28;20452;-65
2024/03/19 00:20:22;;;;;;;22.77;9.73;;;;;;;;;;5057517;28;20041;-66
2024/03/19 00:22:48;;;;;;;23.40;10.43;;;;;;;;;;5064918;28;20045;-66
2024/03/19 00:25:14;;;;;;;22.33;10.27;;;;;;;;;;5063532;28;20035;-65
2024/03/19 00:27:41;;;;;;;25.15;10.20;;;;;;;;;;5070760;28;20040;-65
2024/03/19 00:30:11;;;;;;;20.75;9.38;;;;;;;;;;5064058;28;20401;-65
2024/03/19 00:32:38;;;;;;;20.90;9.38;;;;;;;;;;5071289;28;20474;-65
2024/03/19 00:35:13;;;;;;;20.48;9.15;;;;;;;;;;5067039;28;20025;-66
2024/03/19 00:37:42;;;;;;;18.52;8.30;;;;;;;;;;5059333;28;20028;-65
2024/03/19 00:40:12;;;;;;;20.30;9.00;;;;;;;;;;5065357;28;20047;-65
2024/03/19 00:42:39;;;;;;;18.58;8.68;;;;;;;;;;5068916;28;20036;-65
2024/03/19 00:45:06;;;;;;;19.00;7.93;;;;;;;;;;5067877;28;20079;-64
2024/03/19 00:47:33;;;;;;;20.25;8.57;;;;;;;;;;5068178;28;20040;-64
2024/03/19 00:50:00;;;;;;;20.08;8.48;;;;;;;;;;5068435;28;20564;-64
2024/03/19 00:52:26;;;;;;;19.58;8.95;;;;;;;;;;5065254;28;20052;-64
2024/03/19 00:54:52;;;;;;;17.92;8.45;;;;;;;;;;5068916;28;20052;-64
2024/03/19 00:57:21;;;;;;;18.05;8.38;;;;;;;;;;5071759;28;20363;-65
2024/03/19 00:59:47;;;;;;;20.25;8.40;;;;;;;;;;5064703;28;20067;-62
2024/03/19 01:02:14;;;;;;;21.08;8.02;;;;;;;;;;5071087;28;20678;-64
2024/03/19 01:04:40;;;;;;;17.95;8.57;;;;;;;;;;5061745;28;20049;-64
2024/03/19 01:07:06;;;;;;;19.50;8.48;;;;;;;;;;5067075;28;20155;-64
2024/03/19 01:09:33;;;;;;;15.82;7.40;;;;;;;;;;5062559;28;20049;-64
2024/03/19 01:11:59;;;;;;;17.35;8.05;;;;;;;;;;5067239;28;20387;-64
2024/03/19 01:14:25;;;;;;;15.20;6.97;;;;;;;;;;5071166;28;20382;-64
2024/03/19 01:16:52;;;;;;;14.40;6.82;;;;;;;;;;5070528;28;20060;-64
2024/03/19 01:19:18;;;;;;;14.43;6.15;;;;;;;;;;5062336;28;20063;-64
2024/03/19 01:21:44;;;;;;;13.15;6.22;;;;;;;;;;5059920;28;20048;-63
2024/03/19 01:24:10;;;;;;;14.23;6.05;;;;;;;;;;5053293;28;20032;-63
2024/03/19 01:26:36;;;;;;;11.52;6.25;;;;;;;;;;5067175;28;20051;-63
2024/03/19 01:29:02;;;;;;;15.10;6.20;;;;;;;;;;5067814;28;20041;-64
2024/03/19 01:31:29;;;;;;;10.73;5.60;;;;;;;;;;5067215;28;20106;-63
2024/03/19 01:33:56;;;;;;;9.73;4.60;;;;;;;;;;5062859;28;20041;-64
2024/03/19 01:36:22;;;;;;;11.38;4.97;;;;;;;;;;5069561;28;20045;-63
2024/03/19 01:38:48;;;;;;;7.25;4.20;;;;;;;;;;5067181;28;20032;-63
2024/03/19 01:41:17;;;;;;;9.48;4.20;;;;;;;;;;5051196;28;20071;-64
2024/03/19 01:43:46;;;;;;;6.82;4.15;;;;;;;;;;5063827;28;20028;-63
2024/03/19 01:46:20;;;;;;;8.50;4.45;;;;;;;;;;5067407;28;20055;-64
2024/03/19 01:48:48;;;;;;;8.23;4.00;;;;;;;;;;5063092;28;20057;-64
2024/03/19 01:51:17;;;;;;;7.25;3.65;;;;;;;;;;5070539;28;20048;-65
2024/03/19 01:53:43;;;;;;;8.67;3.87;;;;;;;;;;5069981;28;20072;-64
2024/03/19 01:56:11;;;;;;;6.50;3.45;;;;;;;;;;5066060;28;20029;-63
2024/03/19 01:58:37;;;;;;;5.63;3.47;;;;;;;;;;5070306;28;20037;-63
2024/03/19 02:01:04;;;;;;;5.68;3.30;;;;;;;;;;5049491;28;20164;-63
2024/03/19 02:03:31;;;;;;;5.93;3.13;;;;;;;;;;5063401;28;20036;-63
2024/03/19 02:05:57;;;;;;;6.25;2.60;;;;;;;;;;5066956;28;20414;-64
2024/03/19 02:08:23;;;;;;;5.78;2.65;;;;;;;;;;5061296;28;20032;-64
2024/03/19 02:10:49;;;;;;;5.28;2.92;;;;;;;;;;5049674;28;20033;-64
2024/03/19 02:13:16;;;;;;;5.72;2.67;;;;;;;;;;5053930;28;20081;-64
2024/03/19 02:15:42;;;;;;;5.88;2.60;;;;;;;;;;5074516;28;20621;-64
2024/03/19 02:18:08;;;;;;;6.15;2.80;;;;;;;;;;5066228;28;20462;-63
2024/03/19 02:20:35;;;;;;;4.63;2.63;;;;;;;;;;5073125;28;20512;-63
2024/03/19 02:23:02;;;;;;;8.40;2.60;;;;;;;;;;5061054;28;20095;-65
2024/03/19 02:25:28;;;;;;;4.60;2.30;;;;;;;;;;5067577;28;20041;-65
2024/03/19 02:27:57;;;;;;;3.38;2.50;;;;;;;;;;5064396;28;20513;-64
2024/03/19 02:30:23;;;;;;;5.93;2.08;;;;;;;;;;5065277;28;20048;-65
2024/03/19 02:32:50;;;;;;;3.13;2.17;;;;;;;;;;5068577;28;20045;-64
2024/03/19 02:35:16;;;;;;;3.55;2.25;;;;;;;;;;5063549;28;20036;-64
2024/03/19 02:37:42;;;;;;;4.28;2.72;;;;;;;;;;5061872;28;20044;-64
2024/03/19 02:40:09;;;;;;;3.25;2.20;;;;;;;;;;5067594;28;20422;-64
2024/03/19 02:42:35;;;;;;;5.57;2.45;;;;;;;;;;5064100;28;20439;-64
2024/03/19 02:45:01;;;;;;;2.97;2.33;;;;;;;;;;5063950;28;20498;-65
2024/03/19 02:47:27;;;;;;;3.50;2.53;;;;;;;;;;5066601;28;20060;-65
2024/03/19 02:49:54;;;;;;;3.63;2.35;;;;;;;;;;5069211;28;20528;-65
2024/03/19 02:52:20;;;;;;;3.90;2.20;;;;;;;;;;5069821;28;20051;-64
2024/03/19 02:54:46;;;;;;;4.50;2.30;;;;;;;;;;5065548;28;20028;-63
2024/03/19 02:57:13;;;;;;;5.07;2.60;;;;;;;;;;5064470;28;20048;-65
2024/03/19 02:59:39;;;;;;;4.30;2.28;;;;;;;;;;5063227;28;20409;-66
2024/03/19 03:02:05;;;;;;;3.63;2.50;;;;;;;;;;5066675;28;20052;-64
2024/03/19 03:04:32;;;;;;;4.13;2.40;;;;;;;;;;5061709;28;20040;-66
2024/03/19 03:06:58;;;;;;;3.47;2.75;;;;;;;;;;5065779;28;20037;-64
2024/03/19 03:09:24;;;;;;;4.75;2.28;;;;;;;;;;5062162;28;20048;-65
2024/03/19 03:11:50;;;;;;;4.75;3.08;;;;;;;;;;5066714;28;20056;-65
2024/03/19 03:14:16;;;;;;;2.97;2.20;;;;;;;;;;5059505;28;20041;-65
2024/03/19 03:16:42;;;;;;;4.05;2.60;;;;;;;;;;5067376;28;20035;-65
2024/03/19 03:19:09;;;;;;;4.28;2.28;;;;;;;;;;5071225;28;20025;-65
2024/03/19 03:21:35;;;;;;;3.75;2.50;;;;;;;;;;5064189;28;20040;-66
2024/03/19 03:24:01;;;;;;;5.10;3.03;;;;;;;;;;5065022;28;20044;-65
2024/03/19 03:26:27;;;;;;;5.57;3.08;;;;;;;;;;5068406;28;20036;-65
2024/03/19 03:28:53;;;;;;;5.00;3.22;;;;;;;;;;5082096;28;20040;-65
2024/03/19 03:31:20;;;;;;;5.15;3.17;;;;;;;;;;5067878;28;20040;-65
2024/03/19 03:33:46;;;;;;;6.47;3.25;;;;;;;;;;5064748;28;20059;-64
2024/03/19 03:36:12;;;;;;;5.95;3.63;;;;;;;;;;5060164;28;20048;-64
2024/03/19 03:38:39;;;;;;;5.05;3.17;;;;;;;;;;5069337;28;20036;-70
2024/03/19 03:41:07;;;;;;;6.00;3.30;;;;;;;;;;5066172;28;20381;-68
2024/03/19 03:43:36;;;;;;;6.47;3.90;;;;;;;;;;5062678;28;20052;-68
2024/03/19 03:46:02;;;;;;;5.28;3.30;;;;;;;;;;5065496;28;20033;-68
2024/03/19 03:48:29;;;;;;;5.32;3.15;;;;;;;;;;5070310;28;20032;-68
2024/03/19 03:50:55;;;;;;;6.75;3.72;;;;;;;;;;5069051;28;20155;-69
2024/03/19 03:53:21;;;;;;;9.95;3.42;;;;;;;;;;5061276;28;20393;-68
2024/03/19 03:55:47;;;;;;;5.15;3.42;;;;;;;;;;5066992;28;20048;-69
2024/03/19 03:58:13;;;;;;;6.43;3.70;;;;;;;;;;5067003;28;20041;-68
2024/03/19 04:00:39;;;;;;;5.90;3.50;;;;;;;;;;5062815;28;20048;-69
2024/03/19 04:03:05;;;;;;;7.07;4.13;;;;;;;;;;5059610;28;20039;-70
2024/03/19 04:05:31;;;;;;;6.63;4.00;;;;;;;;;;5058884;28;20518;-70
2024/03/19 04:07:57;;;;;;;5.20;3.78;;;;;;;;;;5065054;28;20045;-68
2024/03/19 04:10:24;;;;;;;8.10;3.75;;;;;;;;;;5068269;28;20040;-68
2024/03/19 04:12:50;;;;;;;7.13;3.90;;;;;;;;;;5065052;28;20053;-69
2024/03/19 04:15:16;;;;;;;6.25;4.20;;;;;;;;;;5064896;28;20041;-71
2024/03/19 04:17:42;;;;;;;6.38;3.80;;;;;;;;;;5065423;28;20501;-69
2024/03/19 04:20:11;;;;;;;6.30;3.78;;;;;;;;;;5070789;28;20043;-71
2024/03/19 04:22:38;;;;;;;6.45;3.92;;;;;;;;;;5063877;28;20569;-68
2024/03/19 04:25:08;;;;;;;5.90;3.92;;;;;;;;;;5060455;28;20033;-69
2024/03/19 04:27:35;;;;;;;9.40;4.20;;;;;;;;;;5064921;28;20505;-69
2024/03/19 04:30:02;;;;;;;5.78;4.07;;;;;;;;;;5063145;28;20513;-70
2024/03/19 04:32:29;;;;;;;7.43;3.70;;;;;;;;;;5063069;28;20041;-69
2024/03/19 04:34:56;;;;;;;6.22;3.53;;;;;;;;;;5070059;28;20040;-68
2024/03/19 04:37:22;;;;;;;7.72;4.30;;;;;;;;;;5064667;28;20159;-69
2024/03/19 04:39:48;;;;;;;13.68;6.28;;;;;;;;;;5062431;28;20798;-69
2024/03/19 04:42:16;;;;;;;9.23;4.47;;;;;;;;;;5062745;28;20037;-68
2024/03/19 04:44:42;;;;;;;7.28;3.88;;;;;;;;;;5067937;28;20071;-69
2024/03/19 04:47:08;;;;;;;5.55;3.75;;;;;;;;;;5063509;28;20032;-68
2024/03/19 04:49:35;;;;;;;10.35;4.53;;;;;;;;;;5069283;28;20048;-69
2024/03/19 04:52:01;;;;;;;11.07;5.85;;;;;;;;;;5063964;28;20045;-69
2024/03/19 04:54:27;;;;;;;9.68;5.75;;;;;;;;;;5062905;28;20033;-69
2024/03/19 04:56:54;;;;;;;5.95;3.55;;;;;;;;;;5064863;28;20051;-69
2024/03/19 04:59:20;;;;;;;8.57;4.88;;;;;;;;;;5066721;28;20040;-69
2024/03/19 05:01:47;;;;;;;7.03;4.13;;;;;;;;;;5062570;28;20028;-69
2024/03/19 05:04:13;;;;;;;6.30;3.83;;;;;;;;;;5064405;28;20040;-66
2024/03/19 05:06:39;;;;;;;7.80;4.10;;;;;;;;;;5067911;28;20029;-66
2024/03/19 05:09:09;;;;;;;5.38;3.42;;;;;;;;;;5081042;28;20055;-66
2024/03/19 05:11:35;;;;;;;6.15;3.20;;;;;;;;;;5066950;28;20041;-66
2024/03/19 05:14:01;;;;;;;5.50;3.10;;;;;;;;;;5065005;28;20044;-68
2024/03/19 05:16:27;;;;;;;5.70;3.55;;;;;;;;;;5064857;28;20052;-68
2024/03/19 05:18:53;;;;;;;5.57;2.95;;;;;;;;;;5069423;28;20068;-68
2024/03/19 05:21:19;;;;;;;5.15;3.45;;;;;;;;;;5064778;28;20049;-68
2024/03/19 05:23:46;;;;;;;4.88;3.13;;;;;;;;;;5060795;28;20036;-69
2024/03/19 05:26:13;;;;;;;6.35;3.30;;;;;;;;;;5063273;28;20051;-67
2024/03/19 05:28:39;;;;;;;4.70;3.00;;;;;;;;;;5068077;28;20413;-68
2024/03/19 05:31:21;;;;;;;6.75;3.10;;;;;;;;;;5067744;28;20036;-68
2024/03/19 05:33:49;;;;;;;17.08;8.18;;;;;;;;;;5063773;28;20044;-67
2024/03/19 05:36:15;;;;;;;8.32;4.10;;;;;;;;;;5065476;28;20037;-64
2024/03/19 05:38:41;;;;;;;5.63;3.15;;;;;;;;;;5066851;28;20024;-65
2024/03/19 05:41:07;;;;;;;5.10;3.60;;;;;;;;;;5068046;28;20041;-64
2024/03/19 05:43:33;;;;;;;6.63;3.80;;;;;;;;;;5070648;28;20052;-66
2024/03/19 05:45:59;;;;;;;5.47;3.05;;;;;;;;;;5069181;28;20421;-65
2024/03/19 05:48:26;;;;;;;6.32;4.03;;;;;;;;;;5069485;28;20051;-65
2024/03/19 05:50:52;;;;;;;7.55;4.57;;;;;;;;;;5073598;28;20051;-65
2024/03/19 05:53:18;;;;;;;8.65;4.22;;;;;;;;;;5072644;28;20040;-64
2024/03/19 05:55:44;;;;;;;4.38;3.83;;;;;;;;;;5070947;28;20036;-65
2024/03/19 05:58:10;;;;;;;4.15;3.40;;;;;;;;;;5071132;28;20048;-66
2024/03/19 06:00:37;;;;;;;7.43;3.90;;;;;;;;;;5062486;28;20048;-65
2024/03/19 06:03:03;;;;;;;7.40;4.70;;;;;;;;;;5066726;28;20055;-65
2024/03/19 06:05:31;;;;;;;7.82;3.60;;;;;;;;;;5071219;28;20043;-66
2024/03/19 06:07:57;;;;;;;4.65;3.47;;;;;;;;;;5062488;28;20520;-66
2024/03/19 06:10:23;;;;;;;5.03;3.22;;;;;;;;;;5078434;28;20035;-65
2024/03/19 06:12:49;;;;;;;5.22;3.70;;;;;;;;;;5065206;28;20059;-64
2024/03/19 06:15:15;;;;;;;5.55;3.08;;;;;;;;;;5070442;28;20055;-65
2024/03/19 06:17:41;;;;;;;11.68;3.78;;;;;;;;;;5069271;28;20033;-64
2024/03/19 06:20:14;;;;;;;5.70;3.10;;;;;;;;;;5068157;28;20040;-65
2024/03/19 06:22:42;;;;;;;7.18;3.60;;;;;;;;;;5059473;28;20044;-65
2024/03/19 06:25:09;;;;;;;8.27;4.05;;;;;;;;;;5064558;28;20060;-65
2024/03/19 06:27:36;;;;;;;6.30;3.63;;;;;;;;;;5053332;28;20040;-64
2024/03/19 06:30:03;;;;;;;3.80;2.83;;;;;;;;;;5069822;28;20044;-64
2024/03/19 06:32:29;;;;;;;4.75;3.30;;;;;;;;;;5067361;28;20063;-64
2024/03/19 06:34:55;;;;;;;8.90;3.65;;;;;;;;;;5066650;28;20045;-64
2024/03/19 06:37:21;;;;;;;8.52;2.83;;;;;;;;;;5065511;28;20049;-64
2024/03/19 06:39:47;;;;;;;4.45;2.85;;;;;;;;;;5064163;28;20044;-65
2024/03/19 06:42:14;;;;;;;76.20;13.95;;;;;;;;;;5068824;28;20052;-66
2024/03/19 06:44:41;;;;;;;58.92;13.95;;;;;;;;;;5068612;28;20035;-65
2024/03/19 06:47:07;;;;;;;53.30;14.27;;;;;;;;;;5062689;28;20052;-65
2024/03/19 06:49:33;;;;;;;38.90;13.75;;;;;;;;;;5062927;28;20048;-65
2024/03/19 06:51:59;;;;;;;23.20;10.73;;;;;;;;;;5082580;28;20169;-64
2024/03/19 06:54:25;;;;;;;14.23;7.55;;;;;;;;;;5061152;28;20389;-64
2024/03/19 06:56:52;;;;;;;14.40;7.90;;;;;;;;;;5061604;28;20048;-65
2024/03/19 06:59:19;;;;;;;12.13;8.52;;;;;;;;;;5059215;28;20119;-65
2024/03/19 07:01:45;;;;;;;18.65;9.43;;;;;;;;;;5068015;28;20041;-65
2024/03/19 07:04:12;;;;;;;17.10;9.30;;;;;;;;;;5068625;28;20047;-63
2024/03/19 07:06:38;;;;;;;14.38;9.07;;;;;;;;;;5065670;28;20039;-64
2024/03/19 07:09:04;;;;;;;15.55;9.13;;;;;;;;;;5065678;28;20040;-65
2024/03/19 07:11:31;;;;;;;18.13;9.57;;;;;;;;;;5067141;28;20052;-64
2024/03/19 07:13:58;;;;;;;18.00;10.10;;;;;;;;;;5063491;28;20470;-64
2024/03/19 07:16:25;;;;;;;19.85;11.77;;;;;;;;;;5067691;28;20036;-64
2024/03/19 07:18:51;;;;;;;24.40;15.35;;;;;;;;;;5072404;28;20048;-65
2024/03/19 07:21:18;;;;;;;28.83;16.02;;;;;;;;;;5069713;28;20055;-65
2024/03/19 07:23:44;;;;;;;34.25;18.15;;;;;;;;;;5068157;28;20040;-64
2024/03/19 07:26:10;;;;;;;29.35;15.35;;;;;;;;;;5069329;28;20039;-65
2024/03/19 07:28:38;;;;;;;29.58;13.60;;;;;;;;;;5068643;28;20044;-64
2024/03/19 07:31:04;;;;;;;23.20;12.43;;;;;;;;;;5068432;28;20057;-64
2024/03/19 07:33:30;;;;;;;15.70;9.85;;;;;;;;;;5069534;28;20040;-64
2024/03/19 07:35:56;;;;;;;17.40;9.60;;;;;;;;;;5095839;28;20032;-64
2024/03/19 07:38:22;;;;;;;15.05;9.60;;;;;;;;;;5068311;28;20535;-64
2024/03/19 07:40:49;;;;;;;18.20;10.70;;;;;;;;;;5066264;28;20040;-65
2024/03/19 07:43:18;;;;;;;16.17;10.98;;;;;;;;;;5068821;28;20052;-63
2024/03/19 07:45:44;;;;;;;17.30;9.55;;;;;;;;;;5068627;28;20048;-64
2024/03/19 07:48:12;;;;;;;16.67;10.43;;;;;;;;;;5061868;28;20048;-64
2024/03/19 07:50:39;;;;;;;19.35;10.88;;;;;;;;;;5053831;28;20067;-64
2024/03/19 07:53:05;;;;;;;17.77;11.02;;;;;;;;;;5053565;28;20036;-64
2024/03/19 07:55:31;;;;;;;17.05;10.30;;;;;;;;;;5064442;28;20071;-64
2024/03/19 07:57:57;;;;;;;20.15;12.05;;;;;;;;;;5058811;28;20413;-65
2024/03/19 08:00:25;;;;;;;24.45;12.68;;;;;;;;;;5062417;28;20051;-65
2024/03/19 08:02:51;;;;;;;22.95;12.40;;;;;;;;;;5061522;28;20052;-65
2024/03/19 08:05:17;;;;;;;24.80;11.30;;;;;;;;;;5065258;28;20040;-64
2024/03/19 08:07:43;;;;;;;16.92;9.93;;;;;;;;;;5060397;28;20072;-64
2024/03/19 08:10:10;;;;;;;17.33;9.35;;;;;;;;;;5062360;28;20386;-65
2024/03/19 08:12:36;;;;;;;15.65;8.77;;;;;;;;;;5068868;28;20059;-64
2024/03/19 08:15:03;;;;;;;18.48;9.90;;;;;;;;;;5074946;28;20028;-66
2024/03/19 08:17:32;;;;;;;15.37;9.20;;;;;;;;;;5073136;28;20036;-65
2024/03/19 08:19:58;;;;;;;19.75;10.40;;;;;;;;;;5062690;28;20036;-65
2024/03/19 08:22:25;;;;;;;20.25;11.27;;;;;;;;;;5065173;28;20044;-65
2024/03/19 08:24:53;;;;;;;22.05;10.52;;;;;;;;;;5064664;28;20040;-65
2024/03/19 08:27:20;;;;;;;18.25;10.95;;;;;;;;;;5063896;28;20041;-64
2024/03/19 08:29:46;;;;;;;18.52;10.90;;;;;;;;;;5068017;28;20043;-65
2024/03/19 08:32:12;;;;;;;17.88;10.63;;;;;;;;;;5067784;28;20047;-65
2024/03/19 08:34:39;;;;;;;16.27;10.05;;;;;;;;;;5069919;28;20047;-66
2024/03/19 08:37:07;;;;;;;18.90;9.38;;;;;;;;;;5059440;28;20151;-65
2024/03/19 08:39:33;;;;;;;13.52;8.30;;;;;;;;;;5064873;28;20044;-66
2024/03/19 08:41:59;;;;;;;14.85;8.15;;;;;;;;;;5065622;28;20140;-64
2024/03/19 08:44:26;;;;;;;15.52;9.07;;;;;;;;;;5070565;28;20387;-65
2024/03/19 08:46:52;;;;;;;16.13;9.27;;;;;;;;;;5068116;28;20040;-65
2024/03/19 08:49:18;;;;;;;14.30;8.48;;;;;;;;;;5064145;28;20406;-65
2024/03/19 08:51:44;;;;;;;13.35;7.97;;;;;;;;;;5063458;28;20051;-65
2024/03/19 08:54:11;;;;;;;13.23;7.03;;;;;;;;;;5068876;28;20052;-66
2024/03/19 08:56:38;;;;;;;12.20;7.53;;;;;;;;;;5070382;28;20036;-64
2024/03/19 08:59:04;;;;;;;11.10;6.95;;;;;;;;;;5068856;28;20498;-65
2024/03/19 09:01:30;;;;;;;13.40;7.88;;;;;;;;;;5067124;28;20048;-65
2024/03/19 09:03:57;;;;;;;12.57;7.72;;;;;;;;;;5066187;28;20421;-66
2024/03/19 09:06:23;;;;;;;12.82;8.10;;;;;;;;;;5066002;28;20060;-66
2024/03/19 09:08:49;;;;;;;13.25;8.00;;;;;;;;;;5066502;28;20132;-64
2024/03/19 09:11:15;;;;;;;15.15;8.93;;;;;;;;;;5060560;28;20062;-64
2024/03/19 09:13:42;;;;;;;11.40;7.78;;;;;;;;;;5069222;28;20421;-64
2024/03/19 09:16:11;;;;;;;11.02;7.43;;;;;;;;;;5068455;28;20036;-65
2024/03/19 09:18:39;;;;;;;13.27;7.68;;;;;;;;;;5067344;28;20043;-66
2024/03/19 09:21:05;;;;;;;10.15;6.10;;;;;;;;;;5059641;28;20045;-64
2024/03/19 09:23:31;;;;;;;12.85;7.25;;;;;;;;;;5069943;28;20071;-65
2024/03/19 09:25:57;;;;;;;10.75;7.32;;;;;;;;;;5069932;28;20029;-63
2024/03/19 09:28:24;;;;;;;12.35;6.80;;;;;;;;;;5068390;28;20037;-65
2024/03/19 09:30:50;;;;;;;9.75;6.40;;;;;;;;;;5066551;28;20489;-65
2024/03/19 09:33:17;;;;;;;9.82;6.55;;;;;;;;;;5066736;28;20382;-63
2024/03/19 09:35:43;;;;;;;9.30;6.05;;;;;;;;;;5083054;28;20040;-64
2024/03/19 09:38:15;;;;;;;10.43;6.45;;;;;;;;;;5063850;28;20040;-59
2024/03/19 09:40:51;;;;;;;8.75;6.15;;;;;;;;;;5065528;28;20028;-59
2024/03/19 09:43:22;;;;;;;10.27;6.70;;;;;;;;;;5070737;28;20063;-62
2024/03/19 09:45:48;;;;;;;9.77;6.30;;;;;;;;;;5064406;28;20827;-60
2024/03/19 09:48:15;;;;;;;12.25;6.15;;;;;;;;;;5066148;28;20406;-59
2024/03/19 09:50:44;;;;;;;12.60;6.45;;;;;;;;;;5068053;28;20047;-59
2024/03/19 09:53:16;;;;;;;;;;;;;;;;;;5064883;28;20053;-60
2024/03/19 09:55:43;;;;;;;10.80;5.55;;;;;;;;;;5064767;28;19916;-60
2024/03/19 09:58:11;;;;;;;8.25;5.00;;;;;;;;;;5066080;28;20037;-59
2024/03/19 10:00:38;;;;;;;7.18;4.97;;;;;;;;;;5062914;28;20043;-60
2024/03/19 10:03:05;;;;;;;7.70;5.20;;;;;;;;;;5063534;28;20029;-60
2024/03/19 10:05:31;;;;;;;12.55;6.70;;;;;;;;;;5074008;28;20040;-60
2024/03/19 10:07:57;;;;;;;7.65;5.40;;;;;;;;;;5065806;28;20051;-59
2024/03/19 10:10:24;;;;;;;8.52;5.85;;;;;;;;;;5063391;28;20057;-60
2024/03/19 10:12:51;;;;;;;7.20;5.00;;;;;;;;;;5065812;28;20043;-60
2024/03/19 10:15:22;;;;;;;5.75;4.40;;;;;;;;;;5063406;28;20045;-60
2024/03/19 10:17:48;;;;;;;6.38;4.40;;;;;;;;;;5064171;28;20024;-60
2024/03/19 10:20:18;;;;;;;6.78;4.90;;;;;;;;;;5063463;28;20054;-60
2024/03/19 10:22:47;;;;;;;6.93;4.93;;;;;;;;;;5072346;28;20049;-60
2024/03/19 10:25:15;;;;;;;7.45;4.20;;;;;;;;;;5068218;28;20064;-58
2024/03/19 10:27:42;;;;;;;8.90;4.35;;;;;;;;;;5062197;28;20063;-60
2024/03/19 10:30:13;;;;;;;6.05;4.20;;;;;;;;;;5064153;28;20048;-59
2024/03/19 10:32:44;;;;;;;7.47;4.95;;;;;;;;;;5067406;28;20400;-59
2024/03/19 10:35:20;;;;;;;7.85;4.47;;;;;;;;;;5070193;28;20036;-59
2024/03/19 10:37:49;;;;;;;8.95;5.43;;;;;;;;;;5071034;28;20044;-59
2024/03/19 10:40:17;;;;;;;8.68;5.28;;;;;;;;;;5075966;28;20807;-59
2024/03/19 10:42:45;;;;;;;8.13;5.00;;;;;;;;;;5070589;28;20047;-59
2024/03/19 10:45:21;;;;;;;8.98;5.40;;;;;;;;;;5070076;28;20039;-60
2024/03/19 10:47:49;;;;;;;8.45;5.25;;;;;;;;;;5070783;28;20044;-61
2024/03/19 10:50:17;;;;;;;5.95;4.70;;;;;;;;;;5065321;28;20052;-60
2024/03/19 10:52:55;;;;;;;8.57;5.57;;;;;;;;;;5068298;28;20040;-59
2024/03/19 10:55:22;;;;;;;6.35;4.85;;;;;;;;;;5066355;28;20051;-60
2024/03/19 10:57:48;;;;;;;6.40;4.40;;;;;;;;;;5062504;28;20024;-60
2024/03/19 11:00:25;;;;;;;7.53;4.60;;;;;;;;;;5071159;28;20047;-60
2024/03/19 11:02:55;;;;;;;7.32;4.65;;;;;;;;;;5070446;28;20036;-58
2024/03/19 11:05:21;;;;;;;6.88;4.82;;;;;;;;;;5068492;28;20415;-60
2024/03/19 11:07:51;;;;;;;7.30;4.78;;;;;;;;;;5066767;28;20032;-60
2024/03/19 11:10:28;;;;;;;9.05;4.55;;;;;;;;;;5057567;28;20417;-63
2024/03/19 11:12:56;;;;;;;6.35;4.50;;;;;;;;;;5068318;28;20052;-59
2024/03/19 11:15:22;;;;;;;5.47;4.22;;;;;;;;;;5068822;28;20040;-62
2024/03/19 11:17:48;;;;;;;5.68;4.38;;;;;;;;;;5065461;28;20045;-60
2024/03/19 11:20:17;;;;;;;6.80;4.18;;;;;;;;;;5070322;28;20028;-59
2024/03/19 11:22:47;;;;;;;5.82;3.45;;;;;;;;;;5067684;28;20046;-60
2024/03/19 11:25:15;;;;;;;8.07;4.60;;;;;;;;;;5065782;28;20044;-60
2024/03/19 11:27:49;;;;;;;7.20;4.00;;;;;;;;;;5067088;28;20071;-61
2024/03/19 11:30:17;;;;;;;5.38;3.72;;;;;;;;;;5062962;28;20040;-62
2024/03/19 11:32:45;;;;;;;3.83;3.30;;;;;;;;;;5063998;28;20041;-60
2024/03/19 11:35:22;;;;;;;4.88;3.75;;;;;;;;;;5065478;28;20028;-61
2024/03/19 11:37:50;;;;;;;3.60;3.28;;;;;;;;;;5069958;28;20028;-60
2024/03/19 11:40:18;;;;;;;5.10;3.42;;;;;;;;;;5063442;28;20071;-64
2024/03/19 11:42:46;;;;;;;4.22;3.47;;;;;;;;;;5061871;28;20028;-58
2024/03/19 11:45:16;;;;;;;4.70;3.40;;;;;;;;;;5064589;28;20032;-60
2024/03/19 11:47:46;;;;;;;5.97;3.38;;;;;;;;;;5095670;28;20303;-59
2024/03/19 11:50:19;;;;;;;5.07;3.47;;;;;;;;;;5062195;28;20035;-60
2024/03/19 11:52:46;;;;;;;4.75;2.95;;;;;;;;;;5057209;28;20048;-59
2024/03/19 11:55:13;;;;;;;4.70;2.60;;;;;;;;;;5058129;28;20041;-60
2024/03/19 11:57:39;;;;;;;3.67;3.10;;;;;;;;;;5061148;28;20047;-60
2024/03/19 12:00:11;;;;;;;3.88;3.13;;;;;;;;;;5066722;28;20505;-60
2024/03/19 12:02:42;;;;;;;4.00;3.08;;;;;;;;;;5064585;28;20048;-59
2024/03/19 12:05:14;;;;;;;3.03;2.63;;;;;;;;;;5055988;28;20045;-60
2024/03/19 12:07:52;;;;;;;2.72;2.53;;;;;;;;;;5065884;28;20039;-60
2024/03/19 12:10:24;;;;;;;2.60;2.40;;;;;;;;;;5068604;28;20051;-61
2024/03/19 12:12:51;;;;;;;4.00;2.55;;;;;;;;;;5059700;28;20037;-61
2024/03/19 12:15:20;;;;;;;3.60;2.78;;;;;;;;;;5064881;28;20044;-59
2024/03/19 12:17:48;;;;;;;2.60;2.40;;;;;;;;;;5060703;28;20040;-60
2024/03/19 12:20:15;;;;;;;2.47;2.28;;;;;;;;;;5066513;28;20044;-59
2024/03/19 12:22:46;;;;;;;2.67;2.25;;;;;;;;;;5060288;28;20047;-60
2024/03/19 12:25:15;;;;;;;3.53;2.15;;;;;;;;;;5067191;28;20044;-59
2024/03/19 12:27:42;;;;;;;2.47;1.83;;;;;;;;;;5060314;28;20374;-59
2024/03/19 12:30:26;;;;;;;2.17;1.90;;;;;;;;;;5060129;28;20048;-60
2024/03/19 12:35:33;;;;;;;1.98;1.65;;;;;;;;;;5072572;28;20037;-61
2024/03/19 12:38:00;;;;;;;3.58;1.67;;;;;;;;;;5069902;28;20045;-60
2024/03/19 12:40:27;;;;;;;1.80;1.35;;;;;;;;;;5066287;28;20905;-60
2024/03/19 12:42:55;;;;;;;2.80;1.63;;;;;;;;;;5064793;28;20041;-60
2024/03/19 12:45:22;;;;;;;1.67;1.30;;;;;;;;;;5071116;28;20040;-62
2024/03/19 12:47:48;;;;;;;3.08;1.75;;;;;;;;;;5068146;28;20044;-60
2024/03/19 12:50:16;;;;;;;1.85;1.20;;;;;;;;;;5072064;28;20494;-59
2024/03/19 12:52:43;;;;;;;3.33;1.30;;;;;;;;;;5069401;28;20276;-59
2024/03/19 12:55:10;;;;;;;1.55;1.40;;;;;;;;;;5068014;28;20024;-61
2024/03/19 12:57:39;;;;;;;1.27;1.17;;;;;;;;;;5066152;28;20052;-60
2024/03/19 13:00:10;;;;;;;3.43;1.67;;;;;;;;;;5060057;28;20044;-60
2024/03/19 13:02:38;;;;;;;2.28;1.00;;;;;;;;;;5064764;28;20040;-60
2024/03/19 13:05:07;;;;;;;1.98;1.00;;;;;;;;;;5056938;28;20394;-61
2024/03/19 13:07:36;;;;;;;2.28;0.95;;;;;;;;;;5070626;28;20048;-60
2024/03/19 13:10:03;;;;;;;1.30;1.00;;;;;;;;;;5072228;28;20039;-61
2024/03/19 13:12:30;;;;;;;1.98;1.17;;;;;;;;;;5071209;28;20059;-62
2024/03/19 13:14:56;;;;;;;2.67;1.10;;;;;;;;;;5072780;28;20048;-61
2024/03/19 13:17:22;;;;;;;1.38;0.98;;;;;;;;;;5071495;28;20044;-61
2024/03/19 13:19:51;;;;;;;2.05;1.00;;;;;;;;;;5063728;28;20037;-61
2024/03/19 13:22:17;;;;;;;1.65;0.90;;;;;;;;;;5062501;28;20033;-61
2024/03/19 13:24:43;;;;;;;1.52;1.00;;;;;;;;;;5068257;28;20041;-59
2024/03/19 13:27:10;;;;;;;1.88;1.15;;;;;;;;;;5070045;28;20055;-60
2024/03/19 13:29:36;;;;;;;1.40;0.80;;;;;;;;;;5069870;28;20068;-60
2024/03/19 13:32:02;;;;;;;2.15;0.95;;;;;;;;;;5058557;28;20060;-61
2024/03/19 13:34:28;;;;;;;1.15;0.98;;;;;;;;;;5071199;28;20043;-62
2024/03/19 13:36:56;;;;;;;4.95;1.77;;;;;;;;;;5077155;28;20033;-62
2024/03/19 13:39:23;;;;;;;4.20;1.70;;;;;;;;;;5079120;28;20059;-62
2024/03/19 13:41:49;;;;;;;3.83;1.40;;;;;;;;;;5067712;28;20047;-65
2024/03/19 13:44:16;;;;;;;10.88;1.55;;;;;;;;;;5080523;28;20039;-65
2024/03/19 13:46:42;;;;;;;2.90;1.40;;;;;;;;;;5076967;28;20111;-65
2024/03/19 13:49:09;;;;;;;3.28;1.27;;;;;;;;;;5065573;28;20051;-65
2024/03/19 13:51:36;;;;;;;2.15;1.02;;;;;;;;;;5067206;28;20044;-67
2024/03/19 13:54:05;;;;;;;3.75;0.98;;;;;;;;;;5064449;28;20040;-68
2024/03/19 13:56:31;;;;;;;4.22;1.67;;;;;;;;;;5061783;28;20049;-66
2024/03/19 13:58:58;;;;;;;9.38;2.60;;;;;;;;;;5060943;28;20049;-67
2024/03/19 14:01:24;;;;;;;1.85;1.20;;;;;;;;;;5068279;28;20051;-68
2024/03/19 14:03:52;;;;;;;1.65;1.10;;;;;;;;;;5069742;28;20035;-67
2024/03/19 14:06:18;;;;;;;4.68;1.35;;;;;;;;;;5069985;28;20055;-67
2024/03/19 14:08:44;;;;;;;2.65;1.45;;;;;;;;;;5068289;28;20028;-66
2024/03/19 14:11:15;;;;;;;2.90;1.40;;;;;;;;;;5060803;28;20044;-68
2024/03/19 14:13:42;;;;;;;7.30;2.17;;;;;;;;;;5069950;28;20044;-62
2024/03/19 14:16:08;;;;;;;3.92;0.98;;;;;;;;;;5071756;28;20524;-63
2024/03/19 14:18:34;;;;;;;3.45;1.13;;;;;;;;;;5062871;28;20048;-63
2024/03/19 14:21:01;;;;;;;3.72;1.05;;;;;;;;;;5064238;28;20052;-63
2024/03/19 14:23:28;;;;;;;3.13;1.10;;;;;;;;;;5060290;28;20041;-62
2024/03/19 14:25:54;;;;;;;2.58;0.90;;;;;;;;;;5060769;28;20473;-62
2024/03/19 14:28:20;;;;;;;4.55;1.10;;;;;;;;;;5068417;28;20036;-64
2024/03/19 14:30:51;;;;;;;3.65;1.10;;;;;;;;;;5070494;28;20047;-63
2024/03/19 14:33:18;;;;;;;3.05;0.93;;;;;;;;;;5061547;28;20036;-63
2024/03/19 14:35:46;;;;;;;5.25;1.13;;;;;;;;;;5064719;28;20576;-62
2024/03/19 14:38:12;;;;;;;1.50;0.60;;;;;;;;;;5067094;28;20494;-62
2024/03/19 14:40:40;;;;;;;2.90;0.90;;;;;;;;;;5066117;28;20051;-62